createdAt,value
2023-01-08T00:01:28.745Z,77.46
2023-01-08T00:03:59.626Z,77.42
2023-01-08T00:06:31.558Z,77.49
2023-01-08T00:09:02.435Z,77.69
2023-01-08T00:11:35.845Z,77.66
2023-01-08T00:14:06.616Z,77.52
2023-01-08T00:16:40.822Z,77.93
2023-01-08T00:19:14.463Z,77.92
2023-01-08T00:21:44.886Z,77.85
2023-01-08T00:24:17.349Z,77.85
2023-01-08T00:26:50.453Z,77.69
2023-01-08T00:29:24.387Z,77.69
2023-01-08T00:31:55.175Z,77.66
2023-01-08T00:34:25.716Z,77.20
2023-01-08T00:36:56.269Z,77.19
2023-01-08T00:39:26.999Z,77.22
2023-01-08T00:42:00.279Z,77.36
2023-01-08T00:44:30.828Z,77.25
2023-01-08T00:47:01.400Z,77.27
2023-01-08T00:49:31.948Z,77.24
2023-01-08T00:52:02.565Z,77.08
2023-01-08T00:54:33.525Z,76.68
2023-01-08T00:57:14.647Z,76.82
2023-01-08T00:59:45.343Z,76.49
2023-01-08T01:02:19.408Z,76.65
2023-01-08T01:04:49.992Z,76.78
2023-01-08T01:07:20.829Z,76.81
2023-01-08T01:09:51.354Z,77.09
2023-01-08T01:12:24.393Z,76.77
2023-01-08T01:14:54.912Z,76.80
2023-01-08T01:17:25.407Z,77.03
2023-01-08T01:19:56.032Z,76.86
2023-01-08T01:22:26.583Z,77.04
2023-01-08T01:24:57.137Z,77.13
2023-01-08T01:27:30.626Z,77.06
2023-01-08T01:30:01.183Z,77.07
2023-01-08T01:32:32.106Z,77.05
2023-01-08T01:35:02.574Z,76.56
2023-01-08T01:37:33.108Z,76.80
2023-01-08T01:40:03.638Z,76.72
2023-01-08T01:42:45.441Z,76.54
2023-01-08T01:45:22.563Z,76.77
2023-01-08T01:47:58.798Z,76.92
2023-01-08T01:50:33.500Z,77.20
2023-01-08T01:53:09.994Z,77.45
2023-01-08T01:55:43.577Z,76.98
2023-01-08T01:58:19.135Z,76.57
2023-01-08T02:00:50.028Z,76.61
2023-01-08T02:03:25.343Z,76.92
2023-01-08T02:06:02.910Z,77.04
2023-01-08T02:08:45.115Z,76.83
2023-01-08T02:11:19.705Z,76.92
2023-01-08T02:13:58.120Z,76.76
2023-01-08T02:16:35.943Z,77.12
2023-01-08T02:19:16.991Z,77.12
2023-01-08T02:22:02.851Z,76.89
2023-01-08T02:24:54.586Z,76.94
2023-01-08T02:27:32.565Z,76.49
2023-01-08T02:30:04.328Z,76.60
2023-01-08T02:32:39.613Z,76.74
2023-01-08T02:35:11.868Z,76.86
2023-01-08T02:37:43.552Z,76.97
2023-01-08T02:40:21.601Z,76.88
2023-01-08T02:43:01.344Z,77.23
2023-01-08T02:45:41.950Z,77.04
2023-01-08T02:48:15.484Z,77.05
2023-01-08T02:50:57.918Z,77.23
2023-01-08T02:53:37.298Z,77.29
2023-01-08T02:56:12.292Z,77.06
2023-01-08T02:58:48.179Z,77.13
2023-01-08T03:01:20.986Z,76.98
2023-01-08T03:03:55.751Z,77.14
2023-01-08T03:06:26.959Z,77.01
2023-01-08T03:08:58.078Z,76.99
2023-01-08T03:11:35.755Z,76.82
2023-01-08T03:14:15.134Z,76.97
2023-01-08T03:16:50.943Z,77.00
2023-01-08T03:19:26.099Z,76.73
2023-01-08T03:21:56.873Z,76.72
2023-01-08T03:24:31.233Z,77.00
2023-01-08T03:27:04.335Z,76.94
2023-01-08T03:29:40.819Z,76.95
2023-01-08T03:32:15.562Z,77.21
2023-01-08T03:34:48.841Z,77.22
2023-01-08T03:37:35.121Z,77.34
2023-01-08T03:40:11.077Z,77.07
2023-01-08T03:42:42.525Z,77.10
2023-01-08T03:45:15.970Z,77.10
2023-01-08T03:47:48.632Z,76.92
2023-01-08T03:50:24.150Z,76.99
2023-01-08T03:52:55.202Z,77.14
2023-01-08T03:55:25.824Z,76.89
2023-01-08T03:57:56.575Z,76.94
2023-01-08T04:00:30.110Z,77.06
2023-01-08T04:03:13.407Z,77.33
2023-01-08T04:05:48.015Z,77.40
2023-01-08T04:08:19.823Z,77.94
2023-01-08T04:10:50.965Z,77.98
2023-01-08T04:13:28.876Z,78.07
2023-01-08T04:16:02.022Z,78.21
2023-01-08T04:18:38.870Z,78.11
2023-01-08T04:21:09.584Z,77.99
2023-01-08T04:23:40.141Z,77.97
2023-01-08T04:26:12.318Z,78.20
2023-01-08T04:28:45.196Z,78.20
2023-01-08T04:31:18.363Z,78.35
2023-01-08T04:33:49.221Z,78.16
2023-01-08T04:36:19.843Z,78.50
2023-01-08T04:38:50.720Z,78.23
2023-01-08T04:41:24.313Z,78.27
2023-01-08T04:43:55.589Z,78.51
2023-01-08T04:46:29.563Z,78.25
2023-01-08T04:49:00.529Z,78.38
2023-01-08T04:51:31.222Z,78.05
2023-01-08T04:54:02.189Z,78.20
2023-01-08T04:56:32.824Z,78.41
2023-01-08T04:59:03.385Z,78.22
2023-01-08T05:01:36.541Z,78.29
2023-01-08T05:04:08.274Z,78.34
2023-01-08T05:06:38.939Z,78.32
2023-01-08T05:09:09.635Z,78.35
2023-01-08T05:11:43.352Z,78.24
2023-01-08T05:14:14.008Z,78.21
2023-01-08T05:16:49.350Z,78.27
2023-01-08T05:19:23.045Z,78.20
2023-01-08T05:21:53.470Z,78.22
2023-01-08T05:24:24.603Z,78.31
2023-01-08T05:26:55.201Z,78.15
2023-01-08T05:29:25.825Z,78.46
2023-01-08T05:31:58.839Z,78.32
2023-01-08T05:34:29.797Z,78.72
2023-01-08T05:37:00.294Z,78.75
2023-01-08T05:39:30.888Z,78.92
2023-01-08T05:42:01.383Z,78.97
2023-01-08T05:44:32.189Z,79.19
2023-01-08T05:47:05.388Z,79.52
2023-01-08T05:49:35.988Z,79.67
2023-01-08T05:52:07.184Z,79.72
2023-01-08T05:54:37.818Z,79.54
2023-01-08T05:57:08.339Z,79.79
2023-01-08T05:59:39.032Z,79.59
2023-01-08T06:02:14.632Z,79.71
2023-01-08T06:04:45.270Z,79.65
2023-01-08T06:07:15.871Z,79.77
2023-01-08T06:09:46.387Z,79.90
2023-01-08T06:12:19.377Z,79.93
2023-01-08T06:14:49.847Z,80.23
2023-01-08T06:17:25.078Z,80.21
2023-01-08T06:19:55.538Z,80.13
2023-01-08T06:22:26.188Z,80.37
2023-01-08T06:24:56.870Z,80.21
2023-01-08T06:27:27.547Z,80.28
2023-01-08T06:29:58.394Z,80.38
2023-01-08T06:32:34.735Z,80.52
2023-01-08T06:35:05.675Z,80.32
2023-01-08T06:37:36.163Z,80.40
2023-01-08T06:40:07.428Z,80.69
2023-01-08T06:42:38.627Z,80.32
2023-01-08T06:45:13.780Z,80.64
2023-01-08T06:47:47.001Z,80.58
2023-01-08T06:50:17.794Z,80.78
2023-01-08T06:52:56.079Z,80.82
2023-01-08T06:55:27.606Z,80.90
2023-01-08T06:57:59.456Z,80.94
2023-01-08T07:00:30.341Z,80.85
2023-01-08T07:03:04.078Z,80.70
2023-01-08T07:05:34.972Z,80.80
2023-01-08T07:08:05.568Z,80.99
2023-01-08T07:10:37.567Z,81.28
2023-01-08T07:13:09.198Z,81.11
2023-01-08T07:15:40.018Z,81.24
2023-01-08T07:18:14.954Z,81.41
2023-01-08T07:20:49.163Z,81.29
2023-01-08T07:23:20.121Z,81.38
2023-01-08T07:25:51.283Z,81.52
2023-01-08T07:28:21.770Z,81.35
2023-01-08T07:30:52.493Z,81.63
2023-01-08T07:33:25.680Z,81.78
2023-01-08T07:35:56.724Z,81.85
2023-01-08T07:38:30.786Z,81.77
2023-01-08T07:41:01.399Z,81.89
2023-01-08T07:43:33.041Z,81.82
2023-01-08T07:46:09.172Z,81.67
2023-01-08T07:48:42.846Z,81.74
2023-01-08T07:51:13.902Z,81.98
2023-01-08T07:53:44.551Z,81.89
2023-01-08T07:56:15.169Z,82.29
2023-01-08T07:58:45.976Z,82.14
2023-01-08T08:01:18.350Z,82.38
2023-01-08T08:03:51.910Z,82.23
2023-01-08T08:06:22.587Z,82.25
2023-01-08T08:08:53.325Z,82.18
2023-01-08T08:11:23.949Z,82.27
2023-01-08T08:13:56.642Z,82.33
2023-01-08T08:16:27.402Z,82.27
2023-01-08T08:19:08.125Z,82.51
2023-01-08T08:21:38.619Z,82.30
2023-01-08T08:24:10.165Z,82.61
2023-01-08T08:26:40.735Z,82.44
2023-01-08T08:29:11.365Z,82.41
2023-01-08T08:31:42.838Z,82.42
2023-01-08T08:34:16.125Z,82.28
2023-01-08T08:36:46.751Z,82.34
2023-01-08T08:39:17.677Z,82.18
2023-01-08T08:41:48.165Z,82.32
2023-01-08T08:44:18.591Z,82.29
2023-01-08T08:46:49.278Z,82.70
2023-01-08T08:49:22.520Z,82.30
2023-01-08T08:51:53.577Z,82.43
2023-01-08T08:54:27.364Z,82.45
2023-01-08T08:56:58.740Z,82.59
2023-01-08T08:59:29.842Z,82.37
2023-01-08T09:02:00.692Z,82.19
2023-01-08T09:04:36.075Z,81.98
2023-01-08T09:07:06.899Z,82.11
2023-01-08T09:09:37.460Z,81.95
2023-01-08T09:12:08.890Z,82.14
2023-01-08T09:14:39.385Z,82.21
2023-01-08T09:17:10.050Z,82.52
2023-01-08T09:19:43.120Z,82.39
2023-01-08T09:22:13.658Z,82.20
2023-01-08T09:24:44.227Z,82.36
2023-01-08T09:27:14.804Z,82.07
2023-01-08T09:29:45.462Z,81.87
2023-01-08T09:32:16.395Z,82.14
2023-01-08T09:34:49.955Z,81.95
2023-01-08T09:37:20.350Z,82.18
2023-01-08T09:39:57.654Z,82.31
2023-01-08T09:42:33.801Z,82.28
2023-01-08T09:45:05.949Z,82.11
2023-01-08T09:47:41.233Z,82.35
2023-01-08T09:50:17.244Z,81.93
2023-01-08T09:52:47.728Z,82.24
2023-01-08T09:55:19.455Z,81.83
2023-01-08T09:57:51.747Z,81.61
2023-01-08T10:00:28.245Z,81.21
2023-01-08T10:03:00.225Z,81.35
2023-01-08T10:05:33.766Z,81.43
2023-01-08T10:08:05.402Z,81.20
2023-01-08T10:10:36.698Z,81.35
2023-01-08T10:13:07.747Z,81.13
2023-01-08T10:15:38.444Z,80.92
2023-01-08T10:18:14.723Z,80.83
2023-01-08T10:20:48.174Z,80.69
2023-01-08T10:23:21.262Z,80.59
2023-01-08T10:25:55.006Z,80.41
2023-01-08T10:28:27.568Z,80.64
2023-01-08T10:31:06.636Z,80.58
2023-01-08T10:33:43.806Z,80.53
2023-01-08T10:36:20.192Z,80.11
2023-01-08T10:38:55.231Z,80.04
2023-01-08T10:41:26.379Z,79.92
2023-01-08T10:44:04.036Z,79.61
2023-01-08T10:46:38.727Z,79.83
2023-01-08T10:49:11.011Z,80.15
2023-01-08T10:51:52.476Z,80.01
2023-01-08T10:54:39.344Z,79.95
2023-01-08T10:57:23.759Z,80.13
2023-01-08T10:59:54.714Z,80.18
2023-01-08T11:02:38.385Z,80.23
2023-01-08T11:05:11.777Z,80.14
2023-01-08T11:07:48.164Z,80.38
2023-01-08T11:10:26.917Z,80.25
2023-01-08T11:12:59.724Z,80.36
2023-01-08T11:15:36.033Z,79.94
2023-01-08T11:18:08.952Z,79.64
2023-01-08T11:20:42.293Z,79.42
2023-01-08T11:23:21.993Z,79.26
2023-01-08T11:25:58.754Z,79.25
2023-01-08T11:28:41.392Z,79.49
2023-01-08T11:31:17.989Z,79.12
2023-01-08T11:33:56.991Z,79.07
2023-01-08T11:36:33.123Z,78.78
2023-01-08T11:39:06.336Z,79.02
2023-01-08T11:41:54.240Z,79.09
2023-01-08T11:44:39.158Z,78.74
2023-01-08T11:47:21.942Z,78.78
2023-01-08T11:50:12.472Z,78.79
2023-01-08T11:53:02.679Z,78.83
2023-01-08T11:55:48.921Z,79.22
2023-01-08T11:58:31.248Z,78.91
2023-01-08T12:01:20.430Z,78.66
2023-01-08T12:03:57.811Z,78.78
2023-01-08T12:06:40.941Z,78.96
2023-01-08T12:09:20.394Z,78.63
2023-01-08T12:12:00.513Z,78.56
2023-01-08T12:14:50.596Z,78.19
2023-01-08T12:17:59.897Z,77.55
2023-01-08T12:20:39.577Z,77.76
2023-01-08T12:23:24.568Z,78.17
2023-01-08T12:26:10.126Z,78.07
2023-01-08T12:29:08.936Z,78.23
2023-01-08T12:32:07.406Z,78.58
2023-01-08T12:34:46.473Z,78.28
2023-01-08T12:37:22.638Z,78.50
2023-01-08T12:40:02.300Z,78.37
2023-01-08T12:42:35.246Z,78.33
2023-01-08T12:45:16.851Z,78.14
2023-01-08T12:47:51.713Z,78.11
2023-01-08T12:50:40.356Z,77.83
2023-01-08T12:53:21.812Z,77.81
2023-01-08T12:56:02.534Z,77.68
2023-01-08T12:58:42.015Z,77.72
2023-01-08T13:01:27.090Z,77.36
2023-01-08T13:03:58.490Z,77.69
2023-01-08T13:06:29.896Z,77.45
2023-01-08T13:09:02.394Z,77.55
2023-01-08T13:11:35.347Z,77.77
2023-01-08T13:14:12.469Z,77.80
2023-01-08T13:16:49.370Z,78.01
2023-01-08T13:19:28.824Z,78.08
2023-01-08T13:22:02.254Z,77.64
2023-01-08T13:24:35.607Z,77.85
2023-01-08T13:27:31.164Z,77.76
2023-01-08T13:30:02.238Z,77.38
2023-01-08T13:32:47.908Z,77.31
2023-01-08T13:35:25.528Z,76.80
2023-01-08T13:38:15.388Z,76.94
2023-01-08T13:41:08.563Z,76.92
2023-01-08T13:43:42.292Z,76.99
2023-01-08T13:46:20.096Z,76.85
2023-01-08T13:49:02.585Z,76.82
2023-01-08T13:51:35.996Z,76.87
2023-01-08T13:54:22.140Z,76.75
2023-01-08T13:56:57.619Z,76.59
2023-01-08T13:59:39.804Z,76.10
2023-01-08T14:02:34.884Z,76.15
2023-01-08T14:05:22.361Z,76.08
2023-01-08T14:07:53.036Z,76.24
2023-01-08T14:10:24.522Z,76.39
2023-01-08T14:12:55.353Z,76.83
2023-01-08T14:15:28.655Z,76.93
2023-01-08T14:18:03.184Z,76.98
2023-01-08T14:20:39.755Z,76.90
2023-01-08T14:23:16.009Z,76.93
2023-01-08T14:25:50.556Z,77.06
2023-01-08T14:28:24.274Z,77.45
2023-01-08T14:30:56.661Z,77.88
2023-01-08T14:33:34.789Z,78.25
2023-01-08T14:36:11.267Z,78.68
2023-01-08T14:38:42.412Z,79.07
2023-01-08T14:41:15.738Z,79.32
2023-01-08T14:43:49.916Z,79.12
2023-01-08T14:46:24.750Z,79.00
2023-01-08T14:48:57.200Z,78.55
2023-01-08T14:51:32.330Z,78.22
2023-01-08T14:54:06.409Z,78.41
2023-01-08T14:56:38.759Z,78.36
2023-01-08T14:59:13.009Z,78.32
2023-01-08T15:01:46.749Z,78.52
2023-01-08T15:04:20.474Z,78.66
2023-01-08T15:06:55.640Z,78.72
2023-01-08T15:09:33.500Z,78.59
2023-01-08T15:12:07.314Z,78.49
2023-01-08T15:14:38.090Z,78.56
2023-01-08T15:17:14.172Z,78.69
2023-01-08T15:19:50.231Z,78.85
2023-01-08T15:22:26.254Z,78.58
2023-01-08T15:25:01.051Z,78.79
2023-01-08T15:27:47.141Z,78.76
2023-01-08T15:30:29.155Z,78.98
2023-01-08T15:33:09.978Z,78.82
2023-01-08T15:35:40.585Z,78.83
2023-01-08T15:38:13.692Z,79.40
2023-01-08T15:40:44.854Z,78.94
2023-01-08T15:43:14.318Z,78.80
2023-01-08T15:45:47.117Z,78.91
2023-01-08T15:48:38.890Z,78.93
2023-01-08T15:51:27.897Z,79.13
2023-01-08T15:54:39.090Z,79.19
2023-01-08T15:57:35.399Z,79.39
2023-01-08T16:00:45.183Z,79.33
2023-01-08T16:03:17.797Z,79.45
2023-01-08T16:05:48.372Z,79.54
2023-01-08T16:08:18.933Z,79.58
2023-01-08T16:10:54.590Z,79.41
2023-01-08T16:13:25.099Z,79.46
2023-01-08T16:15:55.980Z,79.63
2023-01-08T16:18:26.715Z,79.64
2023-01-08T16:21:02.779Z,79.19
2023-01-08T16:23:33.232Z,79.26
2023-01-08T16:26:08.279Z,79.18
2023-01-08T16:28:38.858Z,78.98
2023-01-08T16:31:09.627Z,78.75
2023-01-08T16:33:40.692Z,78.66
2023-01-08T16:36:12.847Z,78.83
2023-01-08T16:38:43.434Z,78.69
2023-01-08T16:41:16.821Z,78.82
2023-01-08T16:43:48.063Z,78.46
2023-01-08T16:46:19.854Z,78.47
2023-01-08T16:48:51.407Z,78.45
2023-01-08T16:51:22.330Z,78.63
2023-01-08T16:53:53.119Z,78.69
2023-01-08T16:56:26.288Z,78.50
2023-01-08T16:58:56.780Z,78.72
2023-01-08T17:01:28.042Z,78.70
2023-01-08T17:04:00.418Z,78.50
2023-01-08T17:06:31.778Z,78.15
2023-01-08T17:09:02.754Z,78.73
2023-01-08T17:11:35.688Z,79.47
2023-01-08T17:14:07.025Z,80.39
2023-01-08T17:16:38.091Z,81.04
2023-01-08T17:19:08.657Z,81.10
2023-01-08T17:21:39.191Z,81.54
2023-01-08T17:24:10.805Z,81.95
2023-01-08T17:26:43.939Z,81.91
2023-01-08T17:29:14.464Z,82.09
2023-01-08T17:31:45.025Z,82.02
2023-01-08T17:34:16.490Z,82.38
2023-01-08T17:36:46.897Z,82.45
2023-01-08T17:39:17.990Z,82.32
2023-01-08T17:42:03.480Z,82.21
2023-01-08T17:44:34.123Z,82.30
2023-01-08T17:47:04.661Z,81.94
2023-01-08T17:49:35.216Z,82.29
2023-01-08T17:52:05.797Z,82.33
2023-01-08T17:54:36.245Z,82.23
2023-01-08T17:57:09.450Z,82.07
2023-01-08T17:59:40.195Z,81.93
2023-01-08T18:02:15.711Z,81.93
2023-01-08T18:04:48.426Z,81.97
2023-01-08T18:07:23.475Z,81.88
2023-01-08T18:09:56.977Z,82.41
2023-01-08T18:12:30.110Z,82.33
2023-01-08T18:15:01.027Z,82.61
2023-01-08T18:17:32.787Z,82.97
2023-01-08T18:20:03.289Z,82.94
2023-01-08T18:22:33.735Z,82.73
2023-01-08T18:25:04.213Z,82.91
2023-01-08T18:27:37.547Z,82.93
2023-01-08T18:30:09.831Z,82.85
2023-01-08T18:32:40.260Z,82.77
2023-01-08T18:35:12.915Z,82.96
2023-01-08T18:37:43.436Z,82.74
2023-01-08T18:40:15.162Z,82.37
2023-01-08T18:42:50.223Z,82.35
2023-01-08T18:45:20.951Z,82.32
2023-01-08T18:47:55.317Z,82.19
2023-01-08T18:50:28.329Z,82.01
2023-01-08T18:52:59.309Z,81.71
2023-01-08T18:55:29.804Z,81.80
2023-01-08T18:58:04.641Z,81.63
2023-01-08T19:00:37.401Z,81.66
2023-01-08T19:03:09.525Z,81.47
2023-01-08T19:05:43.159Z,81.30
2023-01-08T19:08:14.047Z,81.39
2023-01-08T19:10:44.580Z,81.56
2023-01-08T19:13:19.108Z,81.52
2023-01-08T19:15:50.176Z,81.45
2023-01-08T19:18:22.960Z,81.53
2023-01-08T19:20:53.419Z,81.25
2023-01-08T19:23:23.882Z,81.45
2023-01-08T19:25:54.445Z,81.49
2023-01-08T19:28:27.745Z,81.44
2023-01-08T19:30:58.481Z,81.67
2023-01-08T19:33:29.211Z,81.73
2023-01-08T19:36:05.732Z,81.55
2023-01-08T19:38:36.307Z,81.70
2023-01-08T19:41:27.701Z,81.42
2023-01-08T19:43:58.670Z,81.52
2023-01-08T19:46:36.673Z,81.39
2023-01-08T19:49:21.763Z,81.46
2023-01-08T19:51:52.755Z,81.35
2023-01-08T19:54:25.838Z,81.28
2023-01-08T19:56:56.841Z,81.10
2023-01-08T19:59:30.037Z,80.93
2023-01-08T20:02:00.511Z,80.97
2023-01-08T20:04:31.349Z,80.73
2023-01-08T20:07:01.738Z,81.01
2023-01-08T20:09:34.414Z,80.94
2023-01-08T20:12:05.233Z,81.01
2023-01-08T20:14:38.533Z,81.22
2023-01-08T20:17:09.042Z,80.63
2023-01-08T20:19:39.769Z,80.19
2023-01-08T20:22:10.314Z,80.00
2023-01-08T20:24:41.649Z,79.99
2023-01-08T20:27:12.248Z,80.05
2023-01-08T20:29:45.287Z,79.94
2023-01-08T20:32:15.791Z,80.27
2023-01-08T20:34:46.191Z,80.27
2023-01-08T20:37:17.108Z,80.12
2023-01-08T20:39:47.642Z,80.24
2023-01-08T20:42:32.956Z,80.27
2023-01-08T20:45:10.115Z,80.26
2023-01-08T20:47:40.553Z,79.86
2023-01-08T20:50:19.983Z,79.75
2023-01-08T20:53:00.318Z,79.55
2023-01-08T20:55:31.113Z,79.46
2023-01-08T20:58:02.077Z,79.35
2023-01-08T21:00:35.118Z,79.39
2023-01-08T21:03:06.006Z,79.57
2023-01-08T21:05:38.115Z,79.93
2023-01-08T21:08:10.148Z,80.02
2023-01-08T21:10:40.600Z,79.93
2023-01-08T21:13:14.316Z,79.71
2023-01-08T21:15:49.812Z,79.66
2023-01-08T21:18:23.249Z,79.58
2023-01-08T21:20:54.056Z,79.64
2023-01-08T21:23:24.435Z,79.59
2023-01-08T21:25:58.104Z,79.14
2023-01-08T21:28:29.219Z,79.51
2023-01-08T21:31:07.979Z,79.53
2023-01-08T21:33:38.860Z,79.32
2023-01-08T21:36:12.180Z,79.72
2023-01-08T21:38:43.265Z,79.92
2023-01-08T21:41:36.444Z,79.83
2023-01-08T21:44:26.030Z,79.96
2023-01-08T21:47:01.206Z,79.95
2023-01-08T21:49:31.963Z,79.97
2023-01-08T21:52:14.841Z,80.22
2023-01-08T21:54:45.529Z,80.25
2023-01-08T21:57:16.756Z,80.13
2023-01-08T21:59:48.563Z,80.00
2023-01-08T22:02:24.289Z,80.14
2023-01-08T22:04:58.436Z,80.30
2023-01-08T22:07:29.103Z,80.16
2023-01-08T22:10:00.663Z,80.27
2023-01-08T22:12:31.147Z,80.04
2023-01-08T22:15:01.746Z,79.94
2023-01-08T22:17:34.846Z,80.03
2023-01-08T22:20:08.125Z,80.08
2023-01-08T22:22:39.076Z,80.24
2023-01-08T22:25:11.131Z,80.57
2023-01-08T22:27:41.591Z,80.59
2023-01-08T22:30:13.829Z,80.30
2023-01-08T22:32:47.660Z,80.50
2023-01-08T22:35:18.352Z,80.38
2023-01-08T22:37:48.654Z,80.29
2023-01-08T22:40:19.762Z,80.45
2023-01-08T22:42:50.148Z,80.29
2023-01-08T22:45:20.667Z,80.29
2023-01-08T22:47:53.657Z,80.37
2023-01-08T22:50:26.751Z,80.49
2023-01-08T22:52:57.171Z,80.58
2023-01-08T22:55:27.575Z,80.72
2023-01-08T22:57:58.029Z,80.49
2023-01-08T23:00:32.558Z,80.65
2023-01-08T23:03:09.065Z,80.92
2023-01-08T23:05:40.202Z,80.92
2023-01-08T23:08:11.185Z,81.18
2023-01-08T23:10:42.227Z,81.35
2023-01-08T23:13:12.643Z,81.18
2023-01-08T23:15:43.424Z,81.19
2023-01-08T23:18:16.610Z,81.27
2023-01-08T23:20:47.301Z,81.36
2023-01-08T23:23:18.058Z,81.10
2023-01-08T23:25:51.192Z,81.04
2023-01-08T23:28:21.746Z,81.11
2023-01-08T23:30:52.309Z,80.94
2023-01-08T23:33:25.435Z,81.09
2023-01-08T23:35:56.342Z,80.81
2023-01-08T23:38:26.872Z,80.97
2023-01-08T23:40:57.461Z,80.74
2023-01-08T23:43:28.252Z,80.56
2023-01-08T23:45:59.923Z,80.29
2023-01-08T23:48:33.568Z,80.36
2023-01-08T23:51:04.345Z,80.09
2023-01-08T23:53:34.932Z,80.21
2023-01-08T23:56:05.660Z,80.03
2023-01-08T23:58:36.165Z,79.97
